Cegled, Hungary
Current Conditions -  °F | °C
As of 10:15 PM on Sunday 23 Nov 2014 (Local Time) from LHKE Reporting Station
Haze Haze  
Wind Chill: 41°   Ceiling: 3300
Heat Index: 41°   Visibility: 3mi
Dew Point: 39°   Wind: 0mph
Humidity: 93%   Direction: NA
Pressure: 30.42"   Gusts: NA
Location:  47.18°N, 19.78°E
Report Text: LHKE 232015Z 00000KT 5000 BR OVC033 05/04 Q1030 NOSIG RMK WHT
Loading
Personal Weather Stations






























Interactive Weather Map New forecast layout! Learn more

10-Day Weather Forecast

Advertisements
Track Severe Weather on mobile